sensor_id;sensor_type;location;lat;lon;timestamp;P1;durP1;ratioP1;P2;durP2;ratioP2
18899;SDS011;9582;52.018;6.306;2023-04-24T00:01:52;9.57;;;8.67;;
18899;SDS011;9582;52.018;6.306;2023-04-24T00:04:20;11.10;;;9.80;;
18899;SDS011;9582;52.018;6.306;2023-04-24T00:06:46;11.60;;;9.43;;
18899;SDS011;9582;52.018;6.306;2023-04-24T00:09:14;11.97;;;9.07;;
18899;SDS011;9582;52.018;6.306;2023-04-24T00:11:41;12.20;;;10.27;;
18899;SDS011;9582;52.018;6.306;2023-04-24T00:14:07;11.03;;;8.97;;
18899;SDS011;9582;52.018;6.306;2023-04-24T00:16:34;11.67;;;10.33;;
18899;SDS011;9582;52.018;6.306;2023-04-24T00:19:00;11.93;;;10.30;;
18899;SDS011;9582;52.018;6.306;2023-04-24T00:21:28;11.53;;;8.43;;
18899;SDS011;9582;52.018;6.306;2023-04-24T00:23:55;12.23;;;10.53;;
18899;SDS011;9582;52.018;6.306;2023-04-24T00:26:21;16.40;;;12.33;;
18899;SDS011;9582;52.018;6.306;2023-04-24T00:28:48;14.70;;;11.87;;
18899;SDS011;9582;52.018;6.306;2023-04-24T00:31:14;14.13;;;12.47;;
18899;SDS011;9582;52.018;6.306;2023-04-24T00:33:41;13.97;;;11.73;;
18899;SDS011;9582;52.018;6.306;2023-04-24T00:36:08;15.87;;;12.83;;
18899;SDS011;9582;52.018;6.306;2023-04-24T00:38:35;15.43;;;12.10;;
18899;SDS011;9582;52.018;6.306;2023-04-24T00:41:02;13.93;;;11.80;;
18899;SDS011;9582;52.018;6.306;2023-04-24T00:43:29;14.17;;;12.53;;
18899;SDS011;9582;52.018;6.306;2023-04-24T00:45:56;14.50;;;11.67;;
18899;SDS011;9582;52.018;6.306;2023-04-24T00:48:24;12.47;;;11.17;;
18899;SDS011;9582;52.018;6.306;2023-04-24T00:50:51;14.60;;;11.93;;
18899;SDS011;9582;52.018;6.306;2023-04-24T00:53:18;12.20;;;9.70;;
18899;SDS011;9582;52.018;6.306;2023-04-24T00:55:46;12.57;;;10.70;;
18899;SDS011;9582;52.018;6.306;2023-04-24T00:58:13;10.30;;;7.60;;
18899;SDS011;9582;52.018;6.306;2023-04-24T01:00:39;10.83;;;9.30;;
18899;SDS011;9582;52.018;6.306;2023-04-24T01:03:06;12.27;;;10.17;;
18899;SDS011;9582;52.018;6.306;2023-04-24T01:05:33;11.13;;;9.37;;
18899;SDS011;9582;52.018;6.306;2023-04-24T01:07:59;10.77;;;9.47;;
18899;SDS011;9582;52.018;6.306;2023-04-24T01:10:28;7.80;;;6.60;;
18899;SDS011;9582;52.018;6.306;2023-04-24T01:12:57;11.27;;;9.20;;
18899;SDS011;9582;52.018;6.306;2023-04-24T01:15:24;10.17;;;8.90;;
18899;SDS011;9582;52.018;6.306;2023-04-24T01:17:51;10.17;;;9.17;;
18899;SDS011;9582;52.018;6.306;2023-04-24T01:20:19;10.60;;;8.70;;
18899;SDS011;9582;52.018;6.306;2023-04-24T01:22:47;9.83;;;8.53;;
18899;SDS011;9582;52.018;6.306;2023-04-24T01:25:14;9.07;;;8.07;;
18899;SDS011;9582;52.018;6.306;2023-04-24T01:27:40;11.07;;;7.70;;
18899;SDS011;9582;52.018;6.306;2023-04-24T01:30:07;10.20;;;8.03;;
18899;SDS011;9582;52.018;6.306;2023-04-24T01:32:35;9.77;;;8.33;;
18899;SDS011;9582;52.018;6.306;2023-04-24T01:35:03;13.00;;;9.83;;
18899;SDS011;9582;52.018;6.306;2023-04-24T01:37:30;12.13;;;9.60;;
18899;SDS011;9582;52.018;6.306;2023-04-24T01:39:58;10.77;;;9.53;;
18899;SDS011;9582;52.018;6.306;2023-04-24T01:42:25;12.13;;;9.93;;
18899;SDS011;9582;52.018;6.306;2023-04-24T01:44:52;11.23;;;9.43;;
18899;SDS011;9582;52.018;6.306;2023-04-24T01:47:19;11.87;;;9.03;;
18899;SDS011;9582;52.018;6.306;2023-04-24T01:49:45;14.77;;;10.03;;
18899;SDS011;9582;52.018;6.306;2023-04-24T01:52:14;10.00;;;7.80;;
18899;SDS011;9582;52.018;6.306;2023-04-24T01:54:41;12.50;;;10.40;;
18899;SDS011;9582;52.018;6.306;2023-04-24T01:57:09;11.27;;;8.70;;
18899;SDS011;9582;52.018;6.306;2023-04-24T01:59:35;12.90;;;9.93;;
18899;SDS011;9582;52.018;6.306;2023-04-24T02:02:02;13.87;;;10.63;;
18899;SDS011;9582;52.018;6.306;2023-04-24T02:04:28;13.30;;;9.90;;
18899;SDS011;9582;52.018;6.306;2023-04-24T02:06:56;14.57;;;10.33;;
18899;SDS011;9582;52.018;6.306;2023-04-24T02:09:23;12.87;;;10.30;;
18899;SDS011;9582;52.018;6.306;2023-04-24T02:11:50;12.90;;;10.43;;
18899;SDS011;9582;52.018;6.306;2023-04-24T02:14:18;13.57;;;10.33;;
18899;SDS011;9582;52.018;6.306;2023-04-24T02:16:44;15.00;;;11.73;;
18899;SDS011;9582;52.018;6.306;2023-04-24T02:19:11;15.40;;;11.80;;
18899;SDS011;9582;52.018;6.306;2023-04-24T02:21:37;16.90;;;12.70;;
18899;SDS011;9582;52.018;6.306;2023-04-24T02:24:04;14.87;;;11.93;;
18899;SDS011;9582;52.018;6.306;2023-04-24T02:26:30;17.50;;;12.77;;
18899;SDS011;9582;52.018;6.306;2023-04-24T02:28:57;16.83;;;12.60;;
18899;SDS011;9582;52.018;6.306;2023-04-24T02:31:25;16.00;;;12.53;;
18899;SDS011;9582;52.018;6.306;2023-04-24T02:33:51;19.70;;;13.70;;
18899;SDS011;9582;52.018;6.306;2023-04-24T02:36:18;16.83;;;13.00;;
18899;SDS011;9582;52.018;6.306;2023-04-24T02:38:44;18.63;;;14.13;;
18899;SDS011;9582;52.018;6.306;2023-04-24T02:41:12;17.87;;;13.60;;
18899;SDS011;9582;52.018;6.306;2023-04-24T02:43:38;16.80;;;14.03;;
18899;SDS011;9582;52.018;6.306;2023-04-24T02:46:05;17.30;;;13.60;;
18899;SDS011;9582;52.018;6.306;2023-04-24T02:48:32;16.67;;;12.87;;
18899;SDS011;9582;52.018;6.306;2023-04-24T02:50:59;16.37;;;12.70;;
18899;SDS011;9582;52.018;6.306;2023-04-24T02:53:25;14.27;;;11.67;;
18899;SDS011;9582;52.018;6.306;2023-04-24T02:55:52;12.40;;;11.10;;
18899;SDS011;9582;52.018;6.306;2023-04-24T02:58:19;12.80;;;10.60;;
18899;SDS011;9582;52.018;6.306;2023-04-24T03:00:46;12.77;;;10.43;;
18899;SDS011;9582;52.018;6.306;2023-04-24T03:03:12;15.17;;;11.07;;
18899;SDS011;9582;52.018;6.306;2023-04-24T03:05:41;12.63;;;10.67;;
18899;SDS011;9582;52.018;6.306;2023-04-24T03:08:08;10.70;;;9.30;;
18899;SDS011;9582;52.018;6.306;2023-04-24T03:10:35;13.47;;;10.90;;
18899;SDS011;9582;52.018;6.306;2023-04-24T03:13:01;13.23;;;11.20;;
18899;SDS011;9582;52.018;6.306;2023-04-24T03:15:28;13.07;;;11.67;;
18899;SDS011;9582;52.018;6.306;2023-04-24T03:17:54;12.13;;;9.90;;
18899;SDS011;9582;52.018;6.306;2023-04-24T03:20:21;17.77;;;13.33;;
18899;SDS011;9582;52.018;6.306;2023-04-24T03:22:49;16.37;;;13.20;;
18899;SDS011;9582;52.018;6.306;2023-04-24T03:25:16;18.57;;;14.10;;
18899;SDS011;9582;52.018;6.306;2023-04-24T03:27:42;19.23;;;14.50;;
18899;SDS011;9582;52.018;6.306;2023-04-24T03:30:23;19.73;;;15.37;;
18899;SDS011;9582;52.018;6.306;2023-04-24T03:32:55;21.87;;;14.73;;
18899;SDS011;9582;52.018;6.306;2023-04-24T03:35:25;20.07;;;16.70;;
18899;SDS011;9582;52.018;6.306;2023-04-24T03:37:54;22.70;;;16.73;;
18899;SDS011;9582;52.018;6.306;2023-04-24T03:40:39;27.83;;;18.83;;
18899;SDS011;9582;52.018;6.306;2023-04-24T03:43:17;20.33;;;15.77;;
18899;SDS011;9582;52.018;6.306;2023-04-24T03:45:44;25.73;;;18.73;;
18899;SDS011;9582;52.018;6.306;2023-04-24T03:48:11;25.80;;;19.17;;
18899;SDS011;9582;52.018;6.306;2023-04-24T03:50:38;25.40;;;19.03;;
18899;SDS011;9582;52.018;6.306;2023-04-24T03:53:09;28.53;;;20.07;;
18899;SDS011;9582;52.018;6.306;2023-04-24T03:55:39;28.50;;;20.53;;
18899;SDS011;9582;52.018;6.306;2023-04-24T03:58:05;26.73;;;19.77;;
18899;SDS011;9582;52.018;6.306;2023-04-24T04:00:32;27.67;;;19.67;;
18899;SDS011;9582;52.018;6.306;2023-04-24T04:03:31;28.47;;;22.20;;
18899;SDS011;9582;52.018;6.306;2023-04-24T04:05:58;31.90;;;22.87;;
18899;SDS011;9582;52.018;6.306;2023-04-24T04:08:26;31.10;;;22.50;;
18899;SDS011;9582;52.018;6.306;2023-04-24T04:10:53;24.97;;;18.60;;
18899;SDS011;9582;52.018;6.306;2023-04-24T04:13:19;27.40;;;22.87;;
18899;SDS011;9582;52.018;6.306;2023-04-24T04:15:46;31.97;;;22.60;;
18899;SDS011;9582;52.018;6.306;2023-04-24T04:18:12;30.73;;;21.83;;
18899;SDS011;9582;52.018;6.306;2023-04-24T04:20:39;29.33;;;22.13;;
18899;SDS011;9582;52.018;6.306;2023-04-24T04:23:05;33.33;;;23.87;;
18899;SDS011;9582;52.018;6.306;2023-04-24T04:25:47;37.30;;;23.93;;
18899;SDS011;9582;52.018;6.306;2023-04-24T04:28:16;32.13;;;22.97;;
18899;SDS011;9582;52.018;6.306;2023-04-24T04:30:44;30.40;;;22.77;;
18899;SDS011;9582;52.018;6.306;2023-04-24T04:33:12;30.63;;;22.37;;
18899;SDS011;9582;52.018;6.306;2023-04-24T04:35:40;31.47;;;21.30;;
18899;SDS011;9582;52.018;6.306;2023-04-24T04:38:08;30.93;;;22.43;;
18899;SDS011;9582;52.018;6.306;2023-04-24T04:40:52;28.07;;;21.17;;
18899;SDS011;9582;52.018;6.306;2023-04-24T04:43:20;33.10;;;21.37;;
18899;SDS011;9582;52.018;6.306;2023-04-24T04:45:50;30.60;;;22.73;;
18899;SDS011;9582;52.018;6.306;2023-04-24T04:48:36;29.43;;;21.40;;
18899;SDS011;9582;52.018;6.306;2023-04-24T04:51:05;29.07;;;21.57;;
18899;SDS011;9582;52.018;6.306;2023-04-24T04:53:31;29.47;;;22.03;;
18899;SDS011;9582;52.018;6.306;2023-04-24T04:55:59;26.70;;;20.93;;
18899;SDS011;9582;52.018;6.306;2023-04-24T04:58:33;30.37;;;21.93;;
18899;SDS011;9582;52.018;6.306;2023-04-24T05:01:00;26.10;;;19.67;;
18899;SDS011;9582;52.018;6.306;2023-04-24T05:03:31;26.70;;;19.47;;
18899;SDS011;9582;52.018;6.306;2023-04-24T05:06:05;30.17;;;19.53;;
18899;SDS011;9582;52.018;6.306;2023-04-24T05:08:35;29.87;;;20.63;;
18899;SDS011;9582;52.018;6.306;2023-04-24T05:11:04;26.50;;;18.53;;
18899;SDS011;9582;52.018;6.306;2023-04-24T05:13:31;27.03;;;20.37;;
18899;SDS011;9582;52.018;6.306;2023-04-24T05:15:59;29.00;;;21.10;;
18899;SDS011;9582;52.018;6.306;2023-04-24T05:18:26;29.23;;;20.57;;
18899;SDS011;9582;52.018;6.306;2023-04-24T05:20:53;29.97;;;19.83;;
18899;SDS011;9582;52.018;6.306;2023-04-24T05:23:20;29.77;;;20.33;;
18899;SDS011;9582;52.018;6.306;2023-04-24T05:25:50;28.27;;;19.33;;
18899;SDS011;9582;52.018;6.306;2023-04-24T05:28:19;28.17;;;20.67;;
18899;SDS011;9582;52.018;6.306;2023-04-24T05:30:56;29.07;;;19.80;;
18899;SDS011;9582;52.018;6.306;2023-04-24T05:33:24;29.40;;;20.73;;
18899;SDS011;9582;52.018;6.306;2023-04-24T05:35:50;26.73;;;18.10;;
18899;SDS011;9582;52.018;6.306;2023-04-24T05:38:17;29.53;;;20.07;;
18899;SDS011;9582;52.018;6.306;2023-04-24T05:40:44;23.87;;;17.93;;
18899;SDS011;9582;52.018;6.306;2023-04-24T05:43:11;25.33;;;19.07;;
18899;SDS011;9582;52.018;6.306;2023-04-24T05:45:39;25.03;;;18.20;;
18899;SDS011;9582;52.018;6.306;2023-04-24T05:48:06;24.00;;;17.17;;
18899;SDS011;9582;52.018;6.306;2023-04-24T05:50:32;24.00;;;17.67;;
18899;SDS011;9582;52.018;6.306;2023-04-24T05:52:59;24.43;;;16.63;;
18899;SDS011;9582;52.018;6.306;2023-04-24T05:55:31;22.13;;;16.13;;
18899;SDS011;9582;52.018;6.306;2023-04-24T05:57:58;23.43;;;17.27;;
18899;SDS011;9582;52.018;6.306;2023-04-24T06:00:25;22.60;;;14.87;;
18899;SDS011;9582;52.018;6.306;2023-04-24T06:03:00;21.47;;;14.87;;
18899;SDS011;9582;52.018;6.306;2023-04-24T06:05:29;21.93;;;14.63;;
18899;SDS011;9582;52.018;6.306;2023-04-24T06:07:55;19.43;;;14.27;;
18899;SDS011;9582;52.018;6.306;2023-04-24T06:10:26;18.43;;;14.13;;
18899;SDS011;9582;52.018;6.306;2023-04-24T06:12:52;19.63;;;14.23;;
18899;SDS011;9582;52.018;6.306;2023-04-24T06:15:21;16.43;;;13.20;;
18899;SDS011;9582;52.018;6.306;2023-04-24T06:18:10;15.50;;;12.20;;
18899;SDS011;9582;52.018;6.306;2023-04-24T06:20:38;16.90;;;11.97;;
18899;SDS011;9582;52.018;6.306;2023-04-24T06:23:07;16.47;;;12.50;;
18899;SDS011;9582;52.018;6.306;2023-04-24T06:25:33;15.90;;;10.77;;
18899;SDS011;9582;52.018;6.306;2023-04-24T06:28:00;14.27;;;10.93;;
18899;SDS011;9582;52.018;6.306;2023-04-24T06:30:29;11.77;;;9.70;;
18899;SDS011;9582;52.018;6.306;2023-04-24T06:32:55;11.97;;;10.07;;
18899;SDS011;9582;52.018;6.306;2023-04-24T06:35:23;11.47;;;9.90;;
18899;SDS011;9582;52.018;6.306;2023-04-24T06:37:49;12.47;;;10.03;;
18899;SDS011;9582;52.018;6.306;2023-04-24T06:40:17;12.67;;;10.23;;
18899;SDS011;9582;52.018;6.306;2023-04-24T06:42:44;10.73;;;8.90;;
18899;SDS011;9582;52.018;6.306;2023-04-24T06:45:11;12.07;;;8.83;;
18899;SDS011;9582;52.018;6.306;2023-04-24T06:47:37;12.03;;;9.13;;
18899;SDS011;9582;52.018;6.306;2023-04-24T06:50:04;8.60;;;7.70;;
18899;SDS011;9582;52.018;6.306;2023-04-24T06:52:32;10.97;;;7.73;;
18899;SDS011;9582;52.018;6.306;2023-04-24T06:54:59;10.93;;;7.73;;
18899;SDS011;9582;52.018;6.306;2023-04-24T06:57:27;10.43;;;8.37;;
18899;SDS011;9582;52.018;6.306;2023-04-24T06:59:53;12.53;;;8.87;;
18899;SDS011;9582;52.018;6.306;2023-04-24T07:02:20;12.00;;;9.53;;
18899;SDS011;9582;52.018;6.306;2023-04-24T07:04:46;11.67;;;9.20;;
18899;SDS011;9582;52.018;6.306;2023-04-24T07:07:13;10.47;;;9.03;;
18899;SDS011;9582;52.018;6.306;2023-04-24T07:09:42;11.93;;;8.90;;
18899;SDS011;9582;52.018;6.306;2023-04-24T07:12:09;12.33;;;9.60;;
18899;SDS011;9582;52.018;6.306;2023-04-24T07:14:37;13.17;;;9.40;;
18899;SDS011;9582;52.018;6.306;2023-04-24T07:17:03;11.03;;;9.17;;
18899;SDS011;9582;52.018;6.306;2023-04-24T07:19:30;14.57;;;10.70;;
18899;SDS011;9582;52.018;6.306;2023-04-24T07:21:56;14.17;;;10.53;;
18899;SDS011;9582;52.018;6.306;2023-04-24T07:24:23;14.77;;;11.03;;
18899;SDS011;9582;52.018;6.306;2023-04-24T07:26:51;15.63;;;11.23;;
18899;SDS011;9582;52.018;6.306;2023-04-24T07:29:18;15.17;;;11.77;;
18899;SDS011;9582;52.018;6.306;2023-04-24T07:31:46;13.00;;;11.07;;
18899;SDS011;9582;52.018;6.306;2023-04-24T07:34:12;16.97;;;11.13;;
18899;SDS011;9582;52.018;6.306;2023-04-24T07:36:39;13.40;;;10.67;;
18899;SDS011;9582;52.018;6.306;2023-04-24T07:39:07;13.50;;;10.07;;
18899;SDS011;9582;52.018;6.306;2023-04-24T07:41:34;13.57;;;11.00;;
18899;SDS011;9582;52.018;6.306;2023-04-24T07:44:02;16.13;;;10.70;;
18899;SDS011;9582;52.018;6.306;2023-04-24T07:46:29;13.73;;;10.27;;
18899;SDS011;9582;52.018;6.306;2023-04-24T07:48:56;12.33;;;9.37;;
18899;SDS011;9582;52.018;6.306;2023-04-24T07:51:24;13.90;;;9.67;;
18899;SDS011;9582;52.018;6.306;2023-04-24T07:53:52;11.40;;;8.63;;
18899;SDS011;9582;52.018;6.306;2023-04-24T07:56:19;13.27;;;9.63;;
18899;SDS011;9582;52.018;6.306;2023-04-24T07:58:46;10.53;;;7.10;;
18899;SDS011;9582;52.018;6.306;2023-04-24T08:01:13;10.23;;;7.33;;
18899;SDS011;9582;52.018;6.306;2023-04-24T08:03:40;10.37;;;7.43;;
18899;SDS011;9582;52.018;6.306;2023-04-24T08:06:07;7.27;;;5.97;;
18899;SDS011;9582;52.018;6.306;2023-04-24T08:08:33;6.93;;;5.20;;
18899;SDS011;9582;52.018;6.306;2023-04-24T08:11:00;5.63;;;4.17;;
18899;SDS011;9582;52.018;6.306;2023-04-24T08:13:26;3.90;;;3.50;;
18899;SDS011;9582;52.018;6.306;2023-04-24T08:15:53;4.30;;;3.27;;
18899;SDS011;9582;52.018;6.306;2023-04-24T08:18:21;3.63;;;2.40;;
18899;SDS011;9582;52.018;6.306;2023-04-24T08:20:48;3.20;;;2.33;;
18899;SDS011;9582;52.018;6.306;2023-04-24T08:23:14;1.80;;;1.50;;
18899;SDS011;9582;52.018;6.306;2023-04-24T08:25:41;2.00;;;1.80;;
18899;SDS011;9582;52.018;6.306;2023-04-24T08:28:08;2.07;;;1.70;;
18899;SDS011;9582;52.018;6.306;2023-04-24T08:30:35;1.50;;;1.30;;
18899;SDS011;9582;52.018;6.306;2023-04-24T08:33:01;2.57;;;2.07;;
18899;SDS011;9582;52.018;6.306;2023-04-24T08:35:29;2.80;;;2.50;;
18899;SDS011;9582;52.018;6.306;2023-04-24T08:37:56;3.30;;;2.87;;
18899;SDS011;9582;52.018;6.306;2023-04-24T08:40:28;4.23;;;2.50;;
18899;SDS011;9582;52.018;6.306;2023-04-24T08:42:55;5.40;;;2.97;;
18899;SDS011;9582;52.018;6.306;2023-04-24T08:45:22;4.80;;;3.13;;
18899;SDS011;9582;52.018;6.306;2023-04-24T08:47:49;5.70;;;3.63;;
18899;SDS011;9582;52.018;6.306;2023-04-24T08:50:18;4.83;;;3.83;;
18899;SDS011;9582;52.018;6.306;2023-04-24T08:52:46;7.20;;;5.67;;
18899;SDS011;9582;52.018;6.306;2023-04-24T08:55:15;8.27;;;4.17;;
18899;SDS011;9582;52.018;6.306;2023-04-24T08:57:43;9.10;;;5.33;;
18899;SDS011;9582;52.018;6.306;2023-04-24T09:00:11;7.13;;;4.73;;
18899;SDS011;9582;52.018;6.306;2023-04-24T09:02:39;8.90;;;6.07;;
18899;SDS011;9582;52.018;6.306;2023-04-24T09:05:08;9.47;;;6.63;;
18899;SDS011;9582;52.018;6.306;2023-04-24T09:07:36;8.13;;;6.23;;
18899;SDS011;9582;52.018;6.306;2023-04-24T09:10:07;8.70;;;5.70;;
18899;SDS011;9582;52.018;6.306;2023-04-24T09:12:34;9.83;;;5.83;;
18899;SDS011;9582;52.018;6.306;2023-04-24T09:15:01;10.50;;;6.40;;
18899;SDS011;9582;52.018;6.306;2023-04-24T09:17:29;8.07;;;6.33;;
18899;SDS011;9582;52.018;6.306;2023-04-24T09:19:56;8.47;;;5.97;;
18899;SDS011;9582;52.018;6.306;2023-04-24T09:22:23;8.00;;;5.80;;
18899;SDS011;9582;52.018;6.306;2023-04-24T09:24:59;8.80;;;6.33;;
18899;SDS011;9582;52.018;6.306;2023-04-24T09:27:29;8.23;;;5.23;;
18899;SDS011;9582;52.018;6.306;2023-04-24T09:29:56;9.80;;;6.63;;
18899;SDS011;9582;52.018;6.306;2023-04-24T09:32:23;10.80;;;5.73;;
18899;SDS011;9582;52.018;6.306;2023-04-24T09:35:04;7.37;;;5.20;;
18899;SDS011;9582;52.018;6.306;2023-04-24T09:37:34;9.43;;;4.63;;
18899;SDS011;9582;52.018;6.306;2023-04-24T09:40:08;6.03;;;4.63;;
18899;SDS011;9582;52.018;6.306;2023-04-24T09:42:38;7.47;;;4.40;;
18899;SDS011;9582;52.018;6.306;2023-04-24T09:45:05;6.57;;;4.20;;
18899;SDS011;9582;52.018;6.306;2023-04-24T09:47:35;4.97;;;2.97;;
18899;SDS011;9582;52.018;6.306;2023-04-24T09:50:08;3.10;;;1.80;;
18899;SDS011;9582;52.018;6.306;2023-04-24T09:52:35;2.07;;;1.53;;
18899;SDS011;9582;52.018;6.306;2023-04-24T09:55:10;2.10;;;1.30;;
18899;SDS011;9582;52.018;6.306;2023-04-24T09:57:42;2.97;;;1.10;;
18899;SDS011;9582;52.018;6.306;2023-04-24T10:00:13;5.77;;;1.97;;
18899;SDS011;9582;52.018;6.306;2023-04-24T10:02:44;4.53;;;2.47;;
18899;SDS011;9582;52.018;6.306;2023-04-24T10:05:11;7.20;;;3.30;;
18899;SDS011;9582;52.018;6.306;2023-04-24T10:07:37;7.27;;;2.90;;
18899;SDS011;9582;52.018;6.306;2023-04-24T10:10:04;7.70;;;2.97;;
18899;SDS011;9582;52.018;6.306;2023-04-24T10:12:32;3.60;;;1.83;;
18899;SDS011;9582;52.018;6.306;2023-04-24T10:15:00;8.53;;;3.90;;
18899;SDS011;9582;52.018;6.306;2023-04-24T10:17:28;5.53;;;3.03;;
18899;SDS011;9582;52.018;6.306;2023-04-24T10:19:55;4.70;;;2.20;;
18899;SDS011;9582;52.018;6.306;2023-04-24T10:22:22;12.63;;;4.47;;
18899;SDS011;9582;52.018;6.306;2023-04-24T10:24:49;5.73;;;3.00;;
18899;SDS011;9582;52.018;6.306;2023-04-24T10:27:17;6.03;;;2.00;;
18899;SDS011;9582;52.018;6.306;2023-04-24T10:29:46;7.13;;;2.97;;
18899;SDS011;9582;52.018;6.306;2023-04-24T10:32:15;6.27;;;3.10;;
18899;SDS011;9582;52.018;6.306;2023-04-24T10:34:42;10.03;;;2.63;;
18899;SDS011;9582;52.018;6.306;2023-04-24T10:37:08;6.50;;;2.37;;
18899;SDS011;9582;52.018;6.306;2023-04-24T10:39:35;3.43;;;2.40;;
18899;SDS011;9582;52.018;6.306;2023-04-24T10:42:04;2.77;;;1.13;;
18899;SDS011;9582;52.018;6.306;2023-04-24T10:44:40;8.23;;;2.10;;
18899;SDS011;9582;52.018;6.306;2023-04-24T10:47:07;3.00;;;1.87;;
18899;SDS011;9582;52.018;6.306;2023-04-24T10:49:40;5.63;;;2.57;;
18899;SDS011;9582;52.018;6.306;2023-04-24T10:52:08;3.33;;;1.60;;
18899;SDS011;9582;52.018;6.306;2023-04-24T10:54:36;5.03;;;2.33;;
18899;SDS011;9582;52.018;6.306;2023-04-24T10:57:27;10.37;;;2.83;;
18899;SDS011;9582;52.018;6.306;2023-04-24T11:02:42;4.10;;;2.17;;
18899;SDS011;9582;52.018;6.306;2023-04-24T11:05:16;5.50;;;1.90;;
18899;SDS011;9582;52.018;6.306;2023-04-24T11:10:39;7.83;;;1.20;;
18899;SDS011;9582;52.018;6.306;2023-04-24T11:13:07;6.33;;;2.43;;
18899;SDS011;9582;52.018;6.306;2023-04-24T11:15:34;3.57;;;1.97;;
18899;SDS011;9582;52.018;6.306;2023-04-24T11:18:00;1.57;;;1.47;;
18899;SDS011;9582;52.018;6.306;2023-04-24T11:20:28;3.23;;;1.60;;
18899;SDS011;9582;52.018;6.306;2023-04-24T11:22:55;2.87;;;1.70;;
18899;SDS011;9582;52.018;6.306;2023-04-24T11:25:30;5.30;;;2.20;;
18899;SDS011;9582;52.018;6.306;2023-04-24T11:28:02;2.53;;;1.47;;
18899;SDS011;9582;52.018;6.306;2023-04-24T11:30:30;4.90;;;1.20;;
18899;SDS011;9582;52.018;6.306;2023-04-24T11:33:01;3.13;;;1.13;;
18899;SDS011;9582;52.018;6.306;2023-04-24T11:35:30;4.87;;;1.90;;
18899;SDS011;9582;52.018;6.306;2023-04-24T11:38:02;3.47;;;2.03;;
18899;SDS011;9582;52.018;6.306;2023-04-24T11:40:30;5.83;;;1.80;;
18899;SDS011;9582;52.018;6.306;2023-04-24T11:42:56;7.47;;;1.97;;
18899;SDS011;9582;52.018;6.306;2023-04-24T11:45:26;8.50;;;2.73;;
18899;SDS011;9582;52.018;6.306;2023-04-24T11:47:56;2.90;;;1.57;;
18899;SDS011;9582;52.018;6.306;2023-04-24T11:50:24;5.03;;;1.93;;
18899;SDS011;9582;52.018;6.306;2023-04-24T11:52:54;3.53;;;1.70;;
18899;SDS011;9582;52.018;6.306;2023-04-24T11:55:25;3.57;;;1.60;;
18899;SDS011;9582;52.018;6.306;2023-04-24T11:57:53;2.27;;;1.13;;
18899;SDS011;9582;52.018;6.306;2023-04-24T12:00:22;4.07;;;1.53;;
18899;SDS011;9582;52.018;6.306;2023-04-24T12:02:49;1.67;;;1.40;;
18899;SDS011;9582;52.018;6.306;2023-04-24T12:05:19;1.93;;;0.97;;
18899;SDS011;9582;52.018;6.306;2023-04-24T12:07:46;0.97;;;0.63;;
18899;SDS011;9582;52.018;6.306;2023-04-24T12:10:19;3.73;;;1.30;;
18899;SDS011;9582;52.018;6.306;2023-04-24T12:12:46;3.00;;;1.03;;
18899;SDS011;9582;52.018;6.306;2023-04-24T12:15:15;1.20;;;0.80;;
18899;SDS011;9582;52.018;6.306;2023-04-24T12:17:42;0.63;;;0.60;;
18899;SDS011;9582;52.018;6.306;2023-04-24T12:20:09;1.13;;;0.63;;
18899;SDS011;9582;52.018;6.306;2023-04-24T12:22:43;2.00;;;1.37;;
18899;SDS011;9582;52.018;6.306;2023-04-24T12:25:11;1.90;;;0.90;;
18899;SDS011;9582;52.018;6.306;2023-04-24T12:27:39;2.37;;;0.97;;
18899;SDS011;9582;52.018;6.306;2023-04-24T12:30:12;2.00;;;1.10;;
18899;SDS011;9582;52.018;6.306;2023-04-24T12:32:43;1.53;;;0.90;;
18899;SDS011;9582;52.018;6.306;2023-04-24T12:35:12;2.03;;;0.70;;
18899;SDS011;9582;52.018;6.306;2023-04-24T12:37:41;1.30;;;0.97;;
18899;SDS011;9582;52.018;6.306;2023-04-24T12:40:09;3.70;;;1.20;;
18899;SDS011;9582;52.018;6.306;2023-04-24T12:42:42;1.87;;;1.20;;
18899;SDS011;9582;52.018;6.306;2023-04-24T12:45:10;1.07;;;0.73;;
18899;SDS011;9582;52.018;6.306;2023-04-24T12:47:38;4.07;;;1.20;;
18899;SDS011;9582;52.018;6.306;2023-04-24T12:50:05;4.30;;;1.00;;
18899;SDS011;9582;52.018;6.306;2023-04-24T12:52:33;2.93;;;1.10;;
18899;SDS011;9582;52.018;6.306;2023-04-24T12:55:00;2.57;;;1.00;;
18899;SDS011;9582;52.018;6.306;2023-04-24T12:57:28;2.63;;;0.93;;
18899;SDS011;9582;52.018;6.306;2023-04-24T12:59:57;1.23;;;0.90;;
18899;SDS011;9582;52.018;6.306;2023-04-24T13:02:25;2.80;;;1.03;;
18899;SDS011;9582;52.018;6.306;2023-04-24T13:04:54;1.63;;;1.10;;
18899;SDS011;9582;52.018;6.306;2023-04-24T13:07:20;4.43;;;1.07;;
18899;SDS011;9582;52.018;6.306;2023-04-24T13:09:47;2.90;;;1.20;;
18899;SDS011;9582;52.018;6.306;2023-04-24T13:12:15;3.37;;;1.40;;
18899;SDS011;9582;52.018;6.306;2023-04-24T13:14:42;2.40;;;1.00;;
18899;SDS011;9582;52.018;6.306;2023-04-24T13:17:10;1.77;;;0.37;;
18899;SDS011;9582;52.018;6.306;2023-04-24T13:19:37;3.00;;;1.10;;
18899;SDS011;9582;52.018;6.306;2023-04-24T13:22:04;3.33;;;0.90;;
18899;SDS011;9582;52.018;6.306;2023-04-24T13:24:31;2.30;;;0.90;;
18899;SDS011;9582;52.018;6.306;2023-04-24T13:26:58;1.80;;;0.73;;
18899;SDS011;9582;52.018;6.306;2023-04-24T13:29:26;1.90;;;0.90;;
18899;SDS011;9582;52.018;6.306;2023-04-24T13:31:52;1.03;;;0.87;;
18899;SDS011;9582;52.018;6.306;2023-04-24T13:34:21;3.83;;;0.90;;
18899;SDS011;9582;52.018;6.306;2023-04-24T13:36:48;3.33;;;1.17;;
18899;SDS011;9582;52.018;6.306;2023-04-24T13:39:16;2.43;;;0.87;;
18899;SDS011;9582;52.018;6.306;2023-04-24T13:41:42;0.80;;;0.70;;
18899;SDS011;9582;52.018;6.306;2023-04-24T13:44:10;2.70;;;0.70;;
18899;SDS011;9582;52.018;6.306;2023-04-24T13:46:36;2.40;;;1.10;;
18899;SDS011;9582;52.018;6.306;2023-04-24T13:49:03;2.67;;;1.10;;
18899;SDS011;9582;52.018;6.306;2023-04-24T13:51:31;2.67;;;1.07;;
18899;SDS011;9582;52.018;6.306;2023-04-24T13:53:57;3.37;;;0.90;;
18899;SDS011;9582;52.018;6.306;2023-04-24T13:56:24;2.70;;;1.17;;
18899;SDS011;9582;52.018;6.306;2023-04-24T13:58:51;2.83;;;0.90;;
18899;SDS011;9582;52.018;6.306;2023-04-24T14:01:19;4.13;;;1.10;;
18899;SDS011;9582;52.018;6.306;2023-04-24T14:03:49;4.00;;;1.50;;
18899;SDS011;9582;52.018;6.306;2023-04-24T14:06:16;2.03;;;1.23;;
18899;SDS011;9582;52.018;6.306;2023-04-24T14:08:44;3.10;;;1.20;;
18899;SDS011;9582;52.018;6.306;2023-04-24T14:11:10;1.33;;;0.93;;
18899;SDS011;9582;52.018;6.306;2023-04-24T14:13:37;5.20;;;1.30;;
18899;SDS011;9582;52.018;6.306;2023-04-24T14:16:04;3.87;;;1.20;;
18899;SDS011;9582;52.018;6.306;2023-04-24T14:18:31;5.93;;;1.20;;
18899;SDS011;9582;52.018;6.306;2023-04-24T14:20:57;4.97;;;1.40;;
18899;SDS011;9582;52.018;6.306;2023-04-24T14:23:26;2.30;;;1.27;;
18899;SDS011;9582;52.018;6.306;2023-04-24T14:25:54;5.93;;;1.77;;
18899;SDS011;9582;52.018;6.306;2023-04-24T14:28:20;5.00;;;1.60;;
18899;SDS011;9582;52.018;6.306;2023-04-24T14:30:47;3.00;;;1.47;;
18899;SDS011;9582;52.018;6.306;2023-04-24T14:33:14;4.40;;;1.60;;
18899;SDS011;9582;52.018;6.306;2023-04-24T14:35:41;5.00;;;1.67;;
18899;SDS011;9582;52.018;6.306;2023-04-24T14:38:08;4.00;;;1.70;;
18899;SDS011;9582;52.018;6.306;2023-04-24T14:40:34;6.27;;;1.80;;
18899;SDS011;9582;52.018;6.306;2023-04-24T14:43:03;3.93;;;1.47;;
18899;SDS011;9582;52.018;6.306;2023-04-24T14:45:29;6.10;;;2.00;;
18899;SDS011;9582;52.018;6.306;2023-04-24T14:47:56;8.53;;;2.10;;
18899;SDS011;9582;52.018;6.306;2023-04-24T14:50:23;7.40;;;1.87;;
18899;SDS011;9582;52.018;6.306;2023-04-24T14:52:53;4.13;;;1.47;;
18899;SDS011;9582;52.018;6.306;2023-04-24T14:55:19;6.40;;;1.97;;
18899;SDS011;9582;52.018;6.306;2023-04-24T14:57:46;4.00;;;1.87;;
18899;SDS011;9582;52.018;6.306;2023-04-24T15:00:14;5.13;;;1.70;;